sensor_id;sensor_type;location;lat;lon;timestamp;pressure;altitude;pressure_sealevel;temperature;humidity
67987;BME280;54767;53.800;15.956;2023-08-20T00:01:05;100583.30;;;21.49;75.86
67987;BME280;54767;53.800;15.956;2023-08-20T00:03:49;100588.56;;;21.47;75.95
67987;BME280;54767;53.800;15.956;2023-08-20T00:06:17;100586.51;;;21.45;75.91
67987;BME280;54767;53.800;15.956;2023-08-20T00:08:44;100588.17;;;21.43;75.84
67987;BME280;54767;53.800;15.956;2023-08-20T00:11:12;100583.98;;;21.41;75.92
67987;BME280;54767;53.800;15.956;2023-08-20T00:13:39;100589.56;;;21.40;76.00
67987;BME280;54767;53.800;15.956;2023-08-20T00:16:08;100589.45;;;21.38;76.07
67987;BME280;54767;53.800;15.956;2023-08-20T00:18:35;100587.89;;;21.36;76.20
67987;BME280;54767;53.800;15.956;2023-08-20T00:21:06;100591.30;;;21.35;76.07
67987;BME280;54767;53.800;15.956;2023-08-20T00:23:34;100585.86;;;21.33;76.15
67987;BME280;54767;53.800;15.956;2023-08-20T00:26:01;100585.39;;;21.31;76.13
67987;BME280;54767;53.800;15.956;2023-08-20T00:28:29;100588.84;;;21.29;76.20
67987;BME280;54767;53.800;15.956;2023-08-20T00:30:56;100589.98;;;21.28;76.30
67987;BME280;54767;53.800;15.956;2023-08-20T00:33:23;100591.30;;;21.25;76.18
67987;BME280;54767;53.800;15.956;2023-08-20T00:35:50;100588.16;;;21.24;76.20
67987;BME280;54767;53.800;15.956;2023-08-20T00:38:17;100589.63;;;21.22;76.25
67987;BME280;54767;53.800;15.956;2023-08-20T00:40:44;100585.79;;;21.20;76.25
67987;BME280;54767;53.800;15.956;2023-08-20T00:43:12;100587.30;;;21.18;76.33
67987;BME280;54767;53.800;15.956;2023-08-20T00:45:40;100590.91;;;21.16;76.38
67987;BME280;54767;53.800;15.956;2023-08-20T00:48:09;100589.02;;;21.15;76.36
67987;BME280;54767;53.800;15.956;2023-08-20T00:50:39;100595.50;;;21.13;76.46
67987;BME280;54767;53.800;15.956;2023-08-20T00:53:08;100594.16;;;21.10;76.53
67987;BME280;54767;53.800;15.956;2023-08-20T00:55:37;100596.52;;;21.09;76.63
67987;BME280;54767;53.800;15.956;2023-08-20T00:58:05;100598.90;;;21.07;76.66
67987;BME280;54767;53.800;15.956;2023-08-20T01:00:32;100598.79;;;21.05;76.62
67987;BME280;54767;53.800;15.956;2023-08-20T01:02:59;100601.19;;;21.03;76.76
67987;BME280;54767;53.800;15.956;2023-08-20T01:05:31;100603.53;;;21.02;76.71
67987;BME280;54767;53.800;15.956;2023-08-20T01:10:47;100608.61;;;20.99;76.80
67987;BME280;54767;53.800;15.956;2023-08-20T01:13:19;100604.06;;;20.97;76.58
67987;BME280;54767;53.800;15.956;2023-08-20T01:15:47;100604.46;;;20.95;76.75
67987;BME280;54767;53.800;15.956;2023-08-20T01:18:14;100605.60;;;20.93;76.89
67987;BME280;54767;53.800;15.956;2023-08-20T01:20:47;100606.88;;;20.92;76.82
67987;BME280;54767;53.800;15.956;2023-08-20T01:23:57;100608.35;;;20.91;76.65
67987;BME280;54767;53.800;15.956;2023-08-20T01:29:43;100603.73;;;20.86;76.65
67987;BME280;54767;53.800;15.956;2023-08-20T01:32:11;100602.73;;;20.84;76.70
67987;BME280;54767;53.800;15.956;2023-08-20T01:34:38;100607.22;;;20.83;76.71
67987;BME280;54767;53.800;15.956;2023-08-20T01:37:06;100605.32;;;20.81;76.85
67987;BME280;54767;53.800;15.956;2023-08-20T01:39:32;100601.27;;;20.80;76.73
67987;BME280;54767;53.800;15.956;2023-08-20T01:42:00;100601.52;;;20.78;76.89
67987;BME280;54767;53.800;15.956;2023-08-20T01:44:27;100596.61;;;20.75;76.87
67987;BME280;54767;53.800;15.956;2023-08-20T01:46:53;100595.61;;;20.74;76.85
67987;BME280;54767;53.800;15.956;2023-08-20T01:49:20;100591.39;;;20.72;76.92
67987;BME280;54767;53.800;15.956;2023-08-20T01:51:48;100589.48;;;20.71;77.02
67987;BME280;54767;53.800;15.956;2023-08-20T01:54:15;100585.80;;;20.70;76.99
67987;BME280;54767;53.800;15.956;2023-08-20T01:56:42;100584.98;;;20.67;77.05
67987;BME280;54767;53.800;15.956;2023-08-20T01:59:09;100583.45;;;20.65;76.94
67987;BME280;54767;53.800;15.956;2023-08-20T02:01:36;100584.55;;;20.64;76.99
67987;BME280;54767;53.800;15.956;2023-08-20T02:04:03;100590.65;;;20.63;76.92
67987;BME280;54767;53.800;15.956;2023-08-20T02:06:30;100591.59;;;20.62;77.33
67987;BME280;54767;53.800;15.956;2023-08-20T02:08:56;100596.45;;;20.60;77.30
67987;BME280;54767;53.800;15.956;2023-08-20T02:11:24;100591.16;;;20.59;77.20
67987;BME280;54767;53.800;15.956;2023-08-20T02:13:51;100590.66;;;20.57;77.00
67987;BME280;54767;53.800;15.956;2023-08-20T02:16:18;100592.31;;;20.56;77.18
67987;BME280;54767;53.800;15.956;2023-08-20T02:18:45;100592.75;;;20.53;77.27
67987;BME280;54767;53.800;15.956;2023-08-20T02:21:13;100595.62;;;20.52;77.24
67987;BME280;54767;53.800;15.956;2023-08-20T02:23:40;100598.13;;;20.51;77.23
67987;BME280;54767;53.800;15.956;2023-08-20T02:26:06;100597.11;;;20.49;77.31
67987;BME280;54767;53.800;15.956;2023-08-20T02:28:34;100602.66;;;20.48;77.55
67987;BME280;54767;53.800;15.956;2023-08-20T02:31:04;100601.63;;;20.47;77.40
67987;BME280;54767;53.800;15.956;2023-08-20T02:33:31;100603.27;;;20.46;77.41
67987;BME280;54767;53.800;15.956;2023-08-20T02:36:03;100610.96;;;20.45;77.70
67987;BME280;54767;53.800;15.956;2023-08-20T02:38:30;100612.05;;;20.44;77.70
67987;BME280;54767;53.800;15.956;2023-08-20T02:40:57;100607.63;;;20.43;77.44
67987;BME280;54767;53.800;15.956;2023-08-20T02:43:24;100613.33;;;20.43;77.61
67987;BME280;54767;53.800;15.956;2023-08-20T02:45:51;100623.48;;;20.43;77.67
67987;BME280;54767;53.800;15.956;2023-08-20T02:48:18;100622.26;;;20.41;77.88
67987;BME280;54767;53.800;15.956;2023-08-20T02:50:46;100618.91;;;20.41;77.96
67987;BME280;54767;53.800;15.956;2023-08-20T02:53:13;100621.22;;;20.41;77.76
67987;BME280;54767;53.800;15.956;2023-08-20T02:55:40;100623.55;;;20.40;77.77
67987;BME280;54767;53.800;15.956;2023-08-20T02:58:08;100626.40;;;20.40;77.85
67987;BME280;54767;53.800;15.956;2023-08-20T03:00:35;100627.31;;;20.40;77.89
67987;BME280;54767;53.800;15.956;2023-08-20T03:03:03;100630.86;;;20.40;77.77
67987;BME280;54767;53.800;15.956;2023-08-20T03:05:34;100634.23;;;20.40;77.91
67987;BME280;54767;53.800;15.956;2023-08-20T03:08:01;100634.05;;;20.40;78.03
67987;BME280;54767;53.800;15.956;2023-08-20T03:10:28;100635.11;;;20.40;77.98
67987;BME280;54767;53.800;15.956;2023-08-20T03:12:55;100637.40;;;20.41;77.93
67987;BME280;54767;53.800;15.956;2023-08-20T03:15:22;100637.75;;;20.41;77.91
67987;BME280;54767;53.800;15.956;2023-08-20T03:17:49;100643.74;;;20.42;78.02
67987;BME280;54767;53.800;15.956;2023-08-20T03:20:16;100646.23;;;20.43;78.22
67987;BME280;54767;53.800;15.956;2023-08-20T03:22:43;100648.50;;;20.44;78.23
67987;BME280;54767;53.800;15.956;2023-08-20T03:25:10;100653.11;;;20.44;78.26
67987;BME280;54767;53.800;15.956;2023-08-20T03:27:37;100653.48;;;20.44;78.18
67987;BME280;54767;53.800;15.956;2023-08-20T03:30:06;100660.59;;;20.44;78.32
67987;BME280;54767;53.800;15.956;2023-08-20T03:32:33;100674.86;;;20.42;78.40
67987;BME280;54767;53.800;15.956;2023-08-20T03:35:00;100710.79;;;20.41;78.42
67987;BME280;54767;53.800;15.956;2023-08-20T03:37:28;100678.13;;;20.41;78.41
67987;BME280;54767;53.800;15.956;2023-08-20T03:39:55;100704.56;;;20.42;78.49
67987;BME280;54767;53.800;15.956;2023-08-20T03:42:22;100711.88;;;20.41;78.65
67987;BME280;54767;53.800;15.956;2023-08-20T03:44:49;100709.83;;;20.39;79.03
67987;BME280;54767;53.800;15.956;2023-08-20T03:47:16;100726.04;;;20.38;79.36
67987;BME280;54767;53.800;15.956;2023-08-20T03:49:47;100713.76;;;20.38;79.68
67987;BME280;54767;53.800;15.956;2023-08-20T03:52:17;100732.02;;;20.39;79.85
67987;BME280;54767;53.800;15.956;2023-08-20T03:54:44;100720.10;;;20.39;80.35
67987;BME280;54767;53.800;15.956;2023-08-20T03:57:11;100737.00;;;20.39;80.60
67987;BME280;54767;53.800;15.956;2023-08-20T03:59:38;100738.09;;;20.39;80.86
67987;BME280;54767;53.800;15.956;2023-08-20T04:02:05;100732.41;;;20.38;81.19
67987;BME280;54767;53.800;15.956;2023-08-20T04:04:32;100735.65;;;20.37;81.25
67987;BME280;54767;53.800;15.956;2023-08-20T04:06:59;100741.83;;;20.38;81.46
67987;BME280;54767;53.800;15.956;2023-08-20T04:09:26;100738.30;;;20.37;81.68
67987;BME280;54767;53.800;15.956;2023-08-20T04:11:53;100748.13;;;20.36;81.89
67987;BME280;54767;53.800;15.956;2023-08-20T04:14:20;100744.60;;;20.35;81.83
67987;BME280;54767;53.800;15.956;2023-08-20T04:16:47;100750.80;;;20.36;81.98
67987;BME280;54767;53.800;15.956;2023-08-20T04:19:14;100763.40;;;20.36;81.95
67987;BME280;54767;53.800;15.956;2023-08-20T04:21:41;100754.50;;;20.37;81.92
67987;BME280;54767;53.800;15.956;2023-08-20T04:24:08;100766.25;;;20.36;82.03
67987;BME280;54767;53.800;15.956;2023-08-20T04:26:35;100769.48;;;20.35;81.98
67987;BME280;54767;53.800;15.956;2023-08-20T04:29:02;100773.79;;;20.34;82.10
67987;BME280;54767;53.800;15.956;2023-08-20T04:31:29;100765.85;;;20.31;82.25
67987;BME280;54767;53.800;15.956;2023-08-20T04:33:56;100772.84;;;20.30;82.59
67987;BME280;54767;53.800;15.956;2023-08-20T04:36:23;100784.83;;;20.27;82.66
67987;BME280;54767;53.800;15.956;2023-08-20T04:38:50;100792.92;;;20.29;82.78
67987;BME280;54767;53.800;15.956;2023-08-20T04:41:17;100791.06;;;20.32;82.74
67987;BME280;54767;53.800;15.956;2023-08-20T04:43:44;100795.83;;;20.34;82.63
67987;BME280;54767;53.800;15.956;2023-08-20T04:46:11;100794.94;;;20.34;82.84
67987;BME280;54767;53.800;15.956;2023-08-20T04:48:38;100794.38;;;20.35;82.93
67987;BME280;54767;53.800;15.956;2023-08-20T04:51:05;100787.64;;;20.34;82.93
67987;BME280;54767;53.800;15.956;2023-08-20T04:53:32;100782.13;;;20.34;83.07
67987;BME280;54767;53.800;15.956;2023-08-20T04:55:59;100778.81;;;20.32;83.10
67987;BME280;54767;53.800;15.956;2023-08-20T04:58:26;100776.36;;;20.31;83.19
67987;BME280;54767;53.800;15.956;2023-08-20T05:00:53;100769.58;;;20.32;83.26
67987;BME280;54767;53.800;15.956;2023-08-20T05:03:20;100758.27;;;20.36;83.32
67987;BME280;54767;53.800;15.956;2023-08-20T05:05:49;100751.92;;;20.40;83.26
67987;BME280;54767;53.800;15.956;2023-08-20T05:08:16;100744.25;;;20.41;83.00
67987;BME280;54767;53.800;15.956;2023-08-20T05:10:44;100735.36;;;20.41;82.90
67987;BME280;54767;53.800;15.956;2023-08-20T05:13:11;100719.55;;;20.41;82.94
67987;BME280;54767;53.800;15.956;2023-08-20T05:15:38;100711.20;;;20.40;83.01
67987;BME280;54767;53.800;15.956;2023-08-20T05:18:05;100719.93;;;20.39;83.11
67987;BME280;54767;53.800;15.956;2023-08-20T05:20:33;100731.46;;;20.40;83.03
67987;BME280;54767;53.800;15.956;2023-08-20T05:23:00;100731.44;;;20.41;83.02
67987;BME280;54767;53.800;15.956;2023-08-20T05:25:27;100724.89;;;20.40;83.00
67987;BME280;54767;53.800;15.956;2023-08-20T05:27:54;100728.04;;;20.41;83.29
67987;BME280;54767;53.800;15.956;2023-08-20T05:30:21;100730.88;;;20.42;83.17
67987;BME280;54767;53.800;15.956;2023-08-20T05:32:48;100736.19;;;20.43;83.10
67987;BME280;54767;53.800;15.956;2023-08-20T05:35:15;100737.59;;;20.43;83.04
67987;BME280;54767;53.800;15.956;2023-08-20T05:37:41;100736.14;;;20.45;83.13
67987;BME280;54767;53.800;15.956;2023-08-20T05:40:09;100732.55;;;20.45;83.03
67987;BME280;54767;53.800;15.956;2023-08-20T05:42:36;100725.53;;;20.42;83.06
67987;BME280;54767;53.800;15.956;2023-08-20T05:45:05;100724.08;;;20.38;82.96
67987;BME280;54767;53.800;15.956;2023-08-20T05:47:32;100721.02;;;20.32;82.89
67987;BME280;54767;53.800;15.956;2023-08-20T05:49:59;100718.84;;;20.28;83.06
67987;BME280;54767;53.800;15.956;2023-08-20T05:52:26;100719.02;;;20.28;83.30
67987;BME280;54767;53.800;15.956;2023-08-20T05:54:53;100709.30;;;20.32;83.46
67987;BME280;54767;53.800;15.956;2023-08-20T05:57:20;100710.98;;;20.35;83.31
67987;BME280;54767;53.800;15.956;2023-08-20T05:59:47;100708.73;;;20.40;83.40
67987;BME280;54767;53.800;15.956;2023-08-20T06:02:17;100707.86;;;20.44;83.30
67987;BME280;54767;53.800;15.956;2023-08-20T06:04:47;100700.13;;;20.47;83.32
67987;BME280;54767;53.800;15.956;2023-08-20T06:07:13;100693.23;;;20.46;83.14
67987;BME280;54767;53.800;15.956;2023-08-20T06:09:40;100693.02;;;20.41;83.36
67987;BME280;54767;53.800;15.956;2023-08-20T06:12:07;100688.45;;;20.40;83.20
67987;BME280;54767;53.800;15.956;2023-08-20T06:14:34;100688.38;;;20.42;83.43
67987;BME280;54767;53.800;15.956;2023-08-20T06:17:01;100683.08;;;20.41;83.32
67987;BME280;54767;53.800;15.956;2023-08-20T06:19:29;100675.06;;;20.36;83.41
67987;BME280;54767;53.800;15.956;2023-08-20T06:21:56;100670.63;;;20.30;83.86
67987;BME280;54767;53.800;15.956;2023-08-20T06:24:23;100670.92;;;20.26;83.91
67987;BME280;54767;53.800;15.956;2023-08-20T06:26:51;100669.38;;;20.24;83.84
67987;BME280;54767;53.800;15.956;2023-08-20T06:29:18;100676.09;;;20.26;84.17
67987;BME280;54767;53.800;15.956;2023-08-20T06:31:45;100673.85;;;20.29;84.21
67987;BME280;54767;53.800;15.956;2023-08-20T06:34:12;100675.64;;;20.34;84.35
67987;BME280;54767;53.800;15.956;2023-08-20T06:36:39;100684.54;;;20.40;84.33
67987;BME280;54767;53.800;15.956;2023-08-20T06:39:06;100683.48;;;20.45;84.13
67987;BME280;54767;53.800;15.956;2023-08-20T06:41:34;100682.23;;;20.50;84.00
67987;BME280;54767;53.800;15.956;2023-08-20T06:44:02;100678.57;;;20.55;83.84
67987;BME280;54767;53.800;15.956;2023-08-20T06:46:29;100682.55;;;20.59;83.80
67987;BME280;54767;53.800;15.956;2023-08-20T06:48:56;100681.01;;;20.63;83.84
67987;BME280;54767;53.800;15.956;2023-08-20T06:51:23;100683.76;;;20.66;83.70
67987;BME280;54767;53.800;15.956;2023-08-20T06:53:52;100682.21;;;20.69;83.79
67987;BME280;54767;53.800;15.956;2023-08-20T06:56:19;100674.64;;;20.72;83.87
67987;BME280;54767;53.800;15.956;2023-08-20T06:58:46;100678.42;;;20.76;83.82
67987;BME280;54767;53.800;15.956;2023-08-20T07:01:13;100677.73;;;20.81;84.07
67987;BME280;54767;53.800;15.956;2023-08-20T07:03:42;100675.36;;;20.88;84.70
67987;BME280;54767;53.800;15.956;2023-08-20T07:06:10;100672.10;;;20.95;84.93
67987;BME280;54767;53.800;15.956;2023-08-20T07:08:38;100668.31;;;21.02;84.96
67987;BME280;54767;53.800;15.956;2023-08-20T07:11:08;100669.29;;;21.09;85.12
67987;BME280;54767;53.800;15.956;2023-08-20T07:13:35;100668.66;;;21.17;85.04
67987;BME280;54767;53.800;15.956;2023-08-20T07:16:03;100671.77;;;21.25;84.76
67987;BME280;54767;53.800;15.956;2023-08-20T07:18:30;100669.54;;;21.33;84.90
67987;BME280;54767;53.800;15.956;2023-08-20T07:20:57;100670.89;;;21.41;84.79
67987;BME280;54767;53.800;15.956;2023-08-20T07:23:24;100669.73;;;21.48;84.53
67987;BME280;54767;53.800;15.956;2023-08-20T07:26:04;100667.83;;;21.57;84.87
67987;BME280;54767;53.800;15.956;2023-08-20T07:28:31;100667.35;;;21.65;84.66
67987;BME280;54767;53.800;15.956;2023-08-20T07:31:17;100668.98;;;21.73;84.95
67987;BME280;54767;53.800;15.956;2023-08-20T07:33:49;100669.52;;;21.82;85.30
67987;BME280;54767;53.800;15.956;2023-08-20T07:36:17;100673.25;;;21.93;85.21
67987;BME280;54767;53.800;15.956;2023-08-20T07:38:44;100671.72;;;22.00;85.19
67987;BME280;54767;53.800;15.956;2023-08-20T07:41:11;100672.91;;;22.11;85.39
67987;BME280;54767;53.800;15.956;2023-08-20T07:43:39;100678.85;;;22.19;85.29
67987;BME280;54767;53.800;15.956;2023-08-20T07:46:07;100677.43;;;22.28;85.16
67987;BME280;54767;53.800;15.956;2023-08-20T07:48:35;100677.05;;;22.38;85.01
67987;BME280;54767;53.800;15.956;2023-08-20T07:51:03;100679.16;;;22.47;85.15
67987;BME280;54767;53.800;15.956;2023-08-20T07:53:31;100677.52;;;22.57;85.17
67987;BME280;54767;53.800;15.956;2023-08-20T07:55:59;100678.09;;;22.65;84.80
67987;BME280;54767;53.800;15.956;2023-08-20T07:58:27;100677.55;;;22.74;84.88
67987;BME280;54767;53.800;15.956;2023-08-20T08:00:57;100678.38;;;22.84;85.11
67987;BME280;54767;53.800;15.956;2023-08-20T08:03:31;100685.24;;;22.95;85.01
67987;BME280;54767;53.800;15.956;2023-08-20T08:05:58;100686.27;;;23.05;84.86
67987;BME280;54767;53.800;15.956;2023-08-20T08:08:25;100691.02;;;23.15;84.69
67987;BME280;54767;53.800;15.956;2023-08-20T08:10:52;100688.74;;;23.22;84.47
67987;BME280;54767;53.800;15.956;2023-08-20T08:13:22;100687.86;;;23.30;84.05
67987;BME280;54767;53.800;15.956;2023-08-20T08:15:50;100691.70;;;23.37;83.60
67987;BME280;54767;53.800;15.956;2023-08-20T08:18:19;100694.55;;;23.44;83.38
67987;BME280;54767;53.800;15.956;2023-08-20T08:20:46;100696.59;;;23.51;83.94
67987;BME280;54767;53.800;15.956;2023-08-20T08:23:13;100697.69;;;23.58;83.87
67987;BME280;54767;53.800;15.956;2023-08-20T08:25:40;100704.11;;;23.67;83.46
67987;BME280;54767;53.800;15.956;2023-08-20T08:28:08;100705.79;;;23.74;82.95
67987;BME280;54767;53.800;15.956;2023-08-20T08:30:35;100712.33;;;23.80;82.59
67987;BME280;54767;53.800;15.956;2023-08-20T08:33:24;100713.50;;;23.85;82.61
67987;BME280;54767;53.800;15.956;2023-08-20T08:36:19;100705.32;;;23.92;82.89
67987;BME280;54767;53.800;15.956;2023-08-20T08:38:47;100714.72;;;24.05;82.57
67987;BME280;54767;53.800;15.956;2023-08-20T08:41:14;100715.35;;;24.15;81.62
67987;BME280;54767;53.800;15.956;2023-08-20T08:43:41;100715.65;;;24.24;81.45
67987;BME280;54767;53.800;15.956;2023-08-20T08:46:17;100712.92;;;24.32;81.39
67987;BME280;54767;53.800;15.956;2023-08-20T08:48:45;100713.05;;;24.41;81.14
67987;BME280;54767;53.800;15.956;2023-08-20T08:51:14;100719.55;;;24.48;80.78
67987;BME280;54767;53.800;15.956;2023-08-20T08:53:42;100726.06;;;24.53;80.76
67987;BME280;54767;53.800;15.956;2023-08-20T08:56:11;100730.30;;;24.59;80.46
67987;BME280;54767;53.800;15.956;2023-08-20T08:58:38;100733.10;;;24.63;80.49
67987;BME280;54767;53.800;15.956;2023-08-20T09:01:05;100731.48;;;24.67;80.09
67987;BME280;54767;53.800;15.956;2023-08-20T09:03:32;100735.45;;;24.70;80.31
67987;BME280;54767;53.800;15.956;2023-08-20T09:06:00;100740.80;;;24.74;80.44
67987;BME280;54767;53.800;15.956;2023-08-20T09:08:31;100740.44;;;24.78;80.05
67987;BME280;54767;53.800;15.956;2023-08-20T09:11:00;100739.81;;;24.84;79.76
67987;BME280;54767;53.800;15.956;2023-08-20T09:13:42;100745.23;;;24.90;79.62
67987;BME280;54767;53.800;15.956;2023-08-20T09:16:11;100751.89;;;24.96;79.60
67987;BME280;54767;53.800;15.956;2023-08-20T09:18:45;100756.42;;;25.02;79.69
67987;BME280;54767;53.800;15.956;2023-08-20T09:21:13;100757.39;;;25.08;79.72
67987;BME280;54767;53.800;15.956;2023-08-20T09:23:45;100759.20;;;25.15;79.58
67987;BME280;54767;53.800;15.956;2023-08-20T09:26:12;100758.67;;;25.23;79.37
67987;BME280;54767;53.800;15.956;2023-08-20T09:28:44;100761.42;;;25.29;79.29
67987;BME280;54767;53.800;15.956;2023-08-20T09:31:12;100760.38;;;25.35;79.39
67987;BME280;54767;53.800;15.956;2023-08-20T09:33:54;100758.55;;;25.43;79.79
67987;BME280;54767;53.800;15.956;2023-08-20T09:36:32;100758.88;;;25.50;79.55
67987;BME280;54767;53.800;15.956;2023-08-20T09:39:01;100754.81;;;25.56;79.47
67987;BME280;54767;53.800;15.956;2023-08-20T09:41:29;100755.98;;;25.61;79.19
67987;BME280;54767;53.800;15.956;2023-08-20T09:43:58;100756.02;;;25.64;78.52
67987;BME280;54767;53.800;15.956;2023-08-20T09:46:27;100758.00;;;25.67;78.66
67987;BME280;54767;53.800;15.956;2023-08-20T09:48:55;100755.36;;;25.73;78.52
67987;BME280;54767;53.800;15.956;2023-08-20T09:51:27;100762.95;;;25.79;78.42
67987;BME280;54767;53.800;15.956;2023-08-20T09:54:19;100765.58;;;25.87;78.57
67987;BME280;54767;53.800;15.956;2023-08-20T09:56:53;100768.58;;;25.91;78.19
67987;BME280;54767;53.800;15.956;2023-08-20T09:59:21;100769.61;;;25.92;78.21
67987;BME280;54767;53.800;15.956;2023-08-20T10:01:49;100768.88;;;25.96;78.08
67987;BME280;54767;53.800;15.956;2023-08-20T10:04:17;100771.88;;;26.00;78.22
67987;BME280;54767;53.800;15.956;2023-08-20T10:06:46;100770.66;;;26.03;77.82
67987;BME280;54767;53.800;15.956;2023-08-20T10:09:13;100774.66;;;26.05;77.17
67987;BME280;54767;53.800;15.956;2023-08-20T10:11:41;100777.06;;;26.07;77.32
67987;BME280;54767;53.800;15.956;2023-08-20T10:14:08;100777.03;;;26.11;76.85
67987;BME280;54767;53.800;15.956;2023-08-20T10:16:35;100781.73;;;26.17;76.80
67987;BME280;54767;53.800;15.956;2023-08-20T10:19:03;100775.05;;;26.21;76.44
67987;BME280;54767;53.800;15.956;2023-08-20T10:21:32;100774.64;;;26.22;76.46
67987;BME280;54767;53.800;15.956;2023-08-20T10:24:07;100770.76;;;26.24;75.52
67987;BME280;54767;53.800;15.956;2023-08-20T10:26:34;100766.39;;;26.25;75.30
67987;BME280;54767;53.800;15.956;2023-08-20T10:32:16;100761.47;;;26.30;75.61
67987;BME280;54767;53.800;15.956;2023-08-20T10:34:50;100757.10;;;26.34;75.62
67987;BME280;54767;53.800;15.956;2023-08-20T10:37:26;100756.46;;;26.39;75.50
67987;BME280;54767;53.800;15.956;2023-08-20T10:39:55;100758.88;;;26.44;75.42
67987;BME280;54767;53.800;15.956;2023-08-20T10:42:26;100756.63;;;26.49;75.34
67987;BME280;54767;53.800;15.956;2023-08-20T10:45:06;100757.58;;;26.55;74.98
67987;BME280;54767;53.800;15.956;2023-08-20T10:47:47;100752.55;;;26.61;75.13
67987;BME280;54767;53.800;15.956;2023-08-20T10:50:16;100754.08;;;26.66;75.07
67987;BME280;54767;53.800;15.956;2023-08-20T10:52:48;100751.34;;;26.70;74.47
67987;BME280;54767;53.800;15.956;2023-08-20T10:55:21;100742.71;;;26.73;74.60
67987;BME280;54767;53.800;15.956;2023-08-20T10:57:56;100727.86;;;26.79;74.44
67987;BME280;54767;53.800;15.956;2023-08-20T11:00:24;100723.15;;;26.79;72.53
67987;BME280;54767;53.800;15.956;2023-08-20T11:02:52;100721.88;;;26.76;72.57
67987;BME280;54767;53.800;15.956;2023-08-20T11:05:20;100720.64;;;26.76;72.72
67987;BME280;54767;53.800;15.956;2023-08-20T11:07:50;100724.25;;;26.79;72.82
67987;BME280;54767;53.800;15.956;2023-08-20T11:10:17;100730.64;;;26.80;72.49
67987;BME280;54767;53.800;15.956;2023-08-20T11:12:48;100736.91;;;26.78;72.05
67987;BME280;54767;53.800;15.956;2023-08-20T11:15:15;100743.41;;;26.74;71.65
67987;BME280;54767;53.800;15.956;2023-08-20T11:17:44;100748.68;;;26.70;71.42
67987;BME280;54767;53.800;15.956;2023-08-20T11:20:16;100756.14;;;26.65;71.44
67987;BME280;54767;53.800;15.956;2023-08-20T11:22:44;100760.23;;;26.62;71.27
67987;BME280;54767;53.800;15.956;2023-08-20T11:25:12;100765.09;;;26.59;71.44
67987;BME280;54767;53.800;15.956;2023-08-20T11:27:43;100770.80;;;26.56;71.36
67987;BME280;54767;53.800;15.956;2023-08-20T11:30:11;100769.33;;;26.50;71.21
67987;BME280;54767;53.800;15.956;2023-08-20T11:32:41;100776.81;;;26.48;71.83
67987;BME280;54767;53.800;15.956;2023-08-20T11:35:10;100783.61;;;26.45;71.86
67987;BME280;54767;53.800;15.956;2023-08-20T11:37:40;100786.10;;;26.39;71.79
67987;BME280;54767;53.800;15.956;2023-08-20T11:40:08;100782.92;;;26.31;71.89
67987;BME280;54767;53.800;15.956;2023-08-20T11:42:35;100786.48;;;26.28;72.23
67987;BME280;54767;53.800;15.956;2023-08-20T11:45:02;100783.64;;;26.25;72.05
67987;BME280;54767;53.800;15.956;2023-08-20T11:47:29;100778.94;;;26.22;72.01
67987;BME280;54767;53.800;15.956;2023-08-20T11:50:05;100781.01;;;26.24;72.55
67987;BME280;54767;53.800;15.956;2023-08-20T11:52:33;100781.95;;;26.29;72.80
67987;BME280;54767;53.800;15.956;2023-08-20T11:55:01;100786.91;;;26.31;72.23
67987;BME280;54767;53.800;15.956;2023-08-20T11:57:29;100788.34;;;26.31;72.45
67987;BME280;54767;53.800;15.956;2023-08-20T12:00:04;100787.98;;;26.31;71.97
67987;BME280;54767;53.800;15.956;2023-08-20T12:02:35;100786.77;;;26.33;72.34
67987;BME280;54767;53.800;15.956;2023-08-20T12:05:07;100794.03;;;26.35;72.37
67987;BME280;54767;53.800;15.956;2023-08-20T12:07:34;100793.13;;;26.38;72.49
67987;BME280;54767;53.800;15.956;2023-08-20T12:10:22;100799.10;;;26.41;72.20
67987;BME280;54767;53.800;15.956;2023-08-20T12:12:50;100798.98;;;26.32;71.17
67987;BME280;54767;53.800;15.956;2023-08-20T12:15:17;100799.74;;;26.22;71.10
67987;BME280;54767;53.800;15.956;2023-08-20T12:17:56;100802.73;;;26.10;70.93
67987;BME280;54767;53.800;15.956;2023-08-20T12:20:26;100801.33;;;26.03;71.53
67987;BME280;54767;53.800;15.956;2023-08-20T12:22:53;100800.17;;;26.01;71.53
67987;BME280;54767;53.800;15.956;2023-08-20T12:25:20;100799.04;;;25.92;71.29
67987;BME280;54767;53.800;15.956;2023-08-20T12:27:47;100801.02;;;25.85;71.12
67987;BME280;54767;53.800;15.956;2023-08-20T12:30:14;100804.77;;;25.81;71.79
67987;BME280;54767;53.800;15.956;2023-08-20T12:32:41;100800.86;;;25.80;71.14
67987;BME280;54767;53.800;15.956;2023-08-20T12:35:08;100796.69;;;25.75;71.57
67987;BME280;54767;53.800;15.956;2023-08-20T12:37:35;100804.62;;;25.74;71.74
67987;BME280;54767;53.800;15.956;2023-08-20T12:40:02;100807.85;;;25.77;72.07
67987;BME280;54767;53.800;15.956;2023-08-20T12:42:31;100813.16;;;25.79;72.12
67987;BME280;54767;53.800;15.956;2023-08-20T12:44:59;100810.92;;;25.84;72.07
67987;BME280;54767;53.800;15.956;2023-08-20T12:47:26;100818.83;;;25.87;71.85
67987;BME280;54767;53.800;15.956;2023-08-20T12:49:53;100820.91;;;25.81;70.68
67987;BME280;54767;53.800;15.956;2023-08-20T12:52:20;100830.63;;;25.70;70.94
67987;BME280;54767;53.800;15.956;2023-08-20T12:54:47;100834.02;;;25.63;71.33
67987;BME280;54767;53.800;15.956;2023-08-20T12:57:14;100838.52;;;25.63;71.63